createdAt,value
2022-11-19T00:02:08.999Z,6.77
2022-11-19T00:04:36.964Z,7.00
2022-11-19T00:07:05.008Z,6.83
2022-11-19T00:09:34.382Z,6.33
2022-11-19T00:12:19.995Z,5.63
2022-11-19T00:14:47.853Z,4.73
2022-11-19T00:17:15.828Z,5.13
2022-11-19T00:19:43.686Z,5.93
2022-11-19T00:22:11.577Z,6.50
2022-11-19T00:24:40.896Z,5.37
2022-11-19T00:27:08.862Z,5.87
2022-11-19T00:29:37.247Z,5.20
2022-11-19T00:32:06.027Z,6.00
2022-11-19T00:34:33.970Z,5.53
2022-11-19T00:37:01.867Z,7.53
2022-11-19T00:39:29.912Z,6.10
2022-11-19T00:41:59.260Z,7.53
2022-11-19T00:44:26.296Z,6.97
2022-11-19T00:46:54.200Z,6.40
2022-11-19T00:49:22.259Z,8.20
2022-11-19T00:51:50.179Z,8.90
2022-11-19T00:54:18.244Z,7.70
2022-11-19T00:56:46.145Z,8.50
2022-11-19T00:59:15.714Z,8.57
2022-11-19T01:01:43.743Z,8.50
2022-11-19T01:04:11.631Z,8.83
2022-11-19T01:06:39.692Z,8.10
2022-11-19T01:09:07.908Z,6.40
2022-11-19T01:11:37.956Z,7.77
2022-11-19T01:14:07.320Z,7.07
2022-11-19T01:16:38.826Z,7.13
2022-11-19T01:19:09.191Z,7.80
2022-11-19T01:21:37.693Z,8.73
2022-11-19T01:24:06.682Z,9.73
2022-11-19T01:26:34.933Z,8.17
2022-11-19T01:29:02.969Z,8.57
2022-11-19T01:31:31.752Z,10.63
2022-11-19T01:34:01.153Z,7.97
2022-11-19T01:36:31.288Z,7.70
2022-11-19T01:38:59.695Z,8.27
2022-11-19T01:41:29.456Z,9.03
2022-11-19T01:43:59.394Z,7.97
2022-11-19T01:46:29.285Z,8.00
2022-11-19T01:49:03.788Z,10.37
2022-11-19T01:51:35.529Z,10.40
2022-11-19T01:54:11.811Z,10.07
2022-11-19T01:56:40.326Z,12.17
2022-11-19T01:59:15.211Z,11.03
2022-11-19T02:01:44.333Z,10.47
2022-11-19T02:04:16.438Z,10.97
2022-11-19T02:06:46.584Z,11.83
2022-11-19T02:09:14.854Z,11.93
2022-11-19T02:12:05.679Z,12.50
2022-11-19T02:15:06.155Z,14.07
2022-11-19T02:17:51.922Z,12.63
2022-11-19T02:20:44.248Z,13.93
2022-11-19T02:23:45.757Z,13.37
2022-11-19T02:26:42.977Z,14.90
2022-11-19T02:29:21.347Z,15.17
2022-11-19T02:31:56.923Z,18.90
2022-11-19T02:34:30.350Z,15.00
2022-11-19T02:37:04.205Z,15.47
2022-11-19T02:39:41.209Z,15.63
2022-11-19T02:42:15.822Z,16.27
2022-11-19T02:45:03.639Z,16.37
2022-11-19T02:47:38.295Z,16.47
2022-11-19T02:50:12.166Z,17.67
2022-11-19T02:52:43.864Z,18.90
2022-11-19T02:55:13.926Z,18.43
2022-11-19T02:57:43.268Z,19.80
2022-11-19T03:00:30.157Z,19.47
2022-11-19T03:03:21.408Z,20.63
2022-11-19T03:05:55.323Z,20.80
2022-11-19T03:08:23.647Z,22.03
2022-11-19T03:11:00.882Z,21.60
2022-11-19T03:13:54.683Z,23.07
2022-11-19T03:16:43.707Z,23.40
2022-11-19T03:19:27.353Z,20.80
2022-11-19T03:21:59.542Z,24.07
2022-11-19T03:24:32.255Z,23.53
2022-11-19T03:27:04.002Z,26.20
2022-11-19T03:29:35.937Z,23.93
2022-11-19T03:32:07.992Z,22.90
2022-11-19T03:34:39.750Z,27.17
2022-11-19T03:37:10.159Z,25.27
2022-11-19T03:39:39.858Z,22.30
2022-11-19T03:42:12.991Z,24.80
2022-11-19T03:44:44.857Z,23.53
2022-11-19T03:47:17.803Z,24.37
2022-11-19T03:49:53.102Z,27.77
2022-11-19T03:52:22.458Z,24.37
2022-11-19T03:54:50.714Z,24.47
2022-11-19T03:57:22.264Z,25.23
2022-11-19T03:59:50.380Z,23.83
2022-11-19T04:02:19.276Z,27.37
2022-11-19T04:04:48.763Z,25.87
2022-11-19T04:07:18.949Z,26.23
2022-11-19T04:09:47.335Z,24.87
2022-11-19T04:12:18.723Z,28.07
2022-11-19T04:14:47.390Z,29.93
2022-11-19T04:17:15.874Z,29.03
2022-11-19T04:19:43.951Z,27.63
2022-11-19T04:22:13.548Z,29.03
2022-11-19T04:24:41.711Z,28.20
2022-11-19T04:27:09.981Z,29.67
2022-11-19T04:29:38.088Z,28.30
2022-11-19T04:32:07.047Z,30.77
2022-11-19T04:34:35.156Z,28.83
2022-11-19T04:37:03.343Z,30.13
2022-11-19T04:39:32.769Z,29.23
2022-11-19T04:42:00.949Z,32.07
2022-11-19T04:44:29.352Z,32.20
2022-11-19T04:46:57.376Z,35.00
2022-11-19T04:49:25.520Z,33.33
2022-11-19T04:51:53.599Z,34.10
2022-11-19T04:54:21.717Z,36.13
2022-11-19T04:56:51.340Z,35.10
2022-11-19T04:59:19.718Z,33.00
2022-11-19T05:01:49.322Z,30.50
2022-11-19T05:04:17.313Z,31.17
2022-11-19T05:06:45.182Z,34.30
2022-11-19T05:09:13.208Z,30.83
2022-11-19T05:11:41.281Z,31.87
2022-11-19T05:14:10.834Z,33.67
2022-11-19T05:16:39.823Z,33.60
2022-11-19T05:19:08.050Z,32.13
2022-11-19T05:21:36.580Z,30.67
2022-11-19T05:24:04.932Z,30.63
2022-11-19T05:26:32.995Z,32.33
2022-11-19T05:29:01.130Z,32.03
2022-11-19T05:31:31.737Z,30.30
2022-11-19T05:33:59.883Z,28.33
2022-11-19T05:36:28.027Z,31.17
2022-11-19T05:38:56.097Z,29.83
2022-11-19T05:41:24.298Z,28.63
2022-11-19T05:43:52.455Z,27.13
2022-11-19T05:46:20.429Z,28.83
2022-11-19T05:48:50.080Z,27.43
2022-11-19T05:51:18.304Z,27.97
2022-11-19T05:53:46.376Z,28.70
2022-11-19T05:56:14.403Z,29.47
2022-11-19T05:58:42.324Z,28.53
2022-11-19T06:01:10.388Z,28.50
2022-11-19T06:03:38.411Z,28.47
2022-11-19T06:06:08.489Z,30.93
2022-11-19T06:08:36.603Z,31.23
2022-11-19T06:11:04.959Z,30.40
2022-11-19T06:13:33.049Z,31.93
2022-11-19T06:16:01.054Z,32.60
2022-11-19T06:18:29.098Z,31.30
2022-11-19T06:20:57.136Z,29.83
2022-11-19T06:23:26.651Z,27.60
2022-11-19T06:25:55.794Z,33.37
2022-11-19T06:28:23.900Z,31.97
2022-11-19T06:30:52.040Z,31.87
2022-11-19T06:33:20.139Z,30.20
2022-11-19T06:35:50.422Z,31.07
2022-11-19T06:38:18.661Z,30.03
2022-11-19T06:40:48.714Z,33.73
2022-11-19T06:43:16.871Z,34.67
2022-11-19T06:45:45.425Z,33.43
2022-11-19T06:48:13.518Z,38.23
2022-11-19T06:50:41.684Z,34.70
2022-11-19T06:53:11.600Z,35.67
2022-11-19T06:55:43.183Z,34.67
2022-11-19T06:58:14.754Z,34.50
2022-11-19T07:00:47.509Z,32.13
2022-11-19T07:03:19.315Z,33.57
2022-11-19T07:05:48.447Z,33.10
2022-11-19T07:08:17.265Z,35.57
2022-11-19T07:10:45.338Z,32.63
2022-11-19T07:13:14.752Z,36.17
2022-11-19T07:15:43.204Z,32.13
2022-11-19T07:18:11.557Z,32.47
2022-11-19T07:20:39.558Z,32.83
2022-11-19T07:23:11.559Z,31.20
2022-11-19T07:25:39.500Z,30.73
2022-11-19T07:28:07.446Z,30.87
2022-11-19T07:30:36.768Z,30.27
2022-11-19T07:33:04.853Z,29.83
2022-11-19T07:35:32.865Z,30.50
2022-11-19T07:38:00.943Z,30.53
2022-11-19T07:40:29.065Z,29.60
2022-11-19T07:42:56.301Z,32.67
2022-11-19T07:45:24.342Z,31.70
2022-11-19T07:47:53.871Z,31.23
2022-11-19T07:50:22.066Z,27.57
2022-11-19T07:52:50.235Z,30.13
2022-11-19T07:55:18.448Z,29.33
2022-11-19T07:57:46.528Z,31.07
2022-11-19T08:00:15.769Z,29.30
2022-11-19T08:02:43.985Z,28.07
2022-11-19T08:05:13.434Z,30.23
2022-11-19T08:07:42.290Z,27.47
2022-11-19T08:10:12.118Z,26.40
2022-11-19T08:12:41.194Z,29.13
2022-11-19T08:15:10.532Z,25.07
2022-11-19T08:17:56.192Z,27.60
2022-11-19T08:20:25.723Z,24.27
2022-11-19T08:22:53.830Z,28.30
2022-11-19T08:25:21.864Z,25.67
2022-11-19T08:27:50.515Z,24.97
2022-11-19T08:30:20.488Z,27.13
2022-11-19T08:32:49.268Z,28.67
2022-11-19T08:35:17.415Z,25.20
2022-11-19T08:37:47.737Z,25.13
2022-11-19T08:40:16.466Z,27.37
2022-11-19T08:43:01.272Z,26.47
2022-11-19T08:45:31.229Z,28.30
2022-11-19T08:48:01.211Z,27.20
2022-11-19T08:50:31.666Z,25.73
2022-11-19T08:53:02.980Z,26.37
2022-11-19T08:55:32.888Z,27.07
2022-11-19T08:58:05.918Z,28.20
2022-11-19T09:00:38.215Z,30.40
2022-11-19T09:03:06.366Z,25.70
2022-11-19T09:05:34.848Z,25.30
2022-11-19T09:08:04.419Z,24.83
2022-11-19T09:10:32.802Z,25.20
2022-11-19T09:13:03.338Z,22.17
2022-11-19T09:15:31.949Z,26.67
2022-11-19T09:18:00.120Z,25.87
2022-11-19T09:20:28.200Z,25.37
2022-11-19T09:22:56.319Z,22.33
2022-11-19T09:25:25.771Z,23.20
2022-11-19T09:27:53.798Z,23.17
2022-11-19T09:30:22.050Z,24.20
2022-11-19T09:32:50.200Z,24.60
2022-11-19T09:35:18.474Z,24.80
2022-11-19T09:37:46.761Z,20.80
2022-11-19T09:40:19.709Z,23.70
2022-11-19T09:42:59.349Z,23.87
2022-11-19T09:45:38.762Z,27.90
2022-11-19T09:48:18.680Z,23.30
2022-11-19T09:50:53.861Z,23.47
2022-11-19T09:53:24.423Z,21.70
2022-11-19T09:55:55.168Z,22.87
2022-11-19T09:58:32.150Z,26.50
2022-11-19T10:01:00.719Z,23.60
2022-11-19T10:03:33.420Z,23.07
2022-11-19T10:06:20.883Z,21.63
2022-11-19T10:09:10.781Z,22.00
2022-11-19T10:11:48.260Z,21.73
2022-11-19T10:14:41.552Z,21.00
2022-11-19T10:17:20.815Z,21.03
2022-11-19T10:19:58.083Z,20.73
2022-11-19T10:22:34.810Z,17.73
2022-11-19T10:25:14.084Z,20.20
2022-11-19T10:27:47.509Z,21.63
2022-11-19T10:30:20.682Z,19.57
2022-11-19T10:32:56.832Z,21.37
2022-11-19T10:35:30.458Z,19.63
2022-11-19T10:38:00.941Z,20.00
2022-11-19T10:40:35.894Z,19.03
2022-11-19T10:43:20.711Z,19.63
2022-11-19T10:45:52.756Z,20.53
2022-11-19T10:48:23.512Z,20.50
2022-11-19T10:50:52.070Z,21.30
2022-11-19T10:53:26.215Z,21.23
2022-11-19T10:55:59.254Z,20.17
2022-11-19T10:58:31.296Z,22.27
2022-11-19T11:01:03.467Z,22.00
2022-11-19T11:03:35.648Z,20.47
2022-11-19T11:06:06.652Z,21.40
2022-11-19T11:08:35.278Z,21.07
2022-11-19T11:11:06.296Z,21.97
2022-11-19T11:13:56.483Z,20.40
2022-11-19T11:16:31.569Z,21.87
2022-11-19T11:19:01.958Z,18.83
2022-11-19T11:21:34.294Z,21.50
2022-11-19T11:24:04.727Z,20.43
2022-11-19T11:26:34.739Z,20.53
2022-11-19T11:29:05.692Z,21.47
2022-11-19T11:31:38.251Z,19.80
2022-11-19T11:34:08.020Z,20.03
2022-11-19T11:36:38.092Z,21.87
2022-11-19T11:39:07.283Z,21.77
2022-11-19T11:44:30.465Z,20.57
2022-11-19T11:47:03.560Z,21.37
2022-11-19T11:49:35.331Z,20.97
2022-11-19T11:52:07.163Z,20.97
2022-11-19T11:54:35.583Z,19.70
2022-11-19T11:57:16.256Z,21.87
2022-11-19T11:59:44.467Z,18.53
2022-11-19T12:02:24.104Z,18.40
2022-11-19T12:04:52.803Z,19.00
2022-11-19T12:07:46.558Z,20.87
2022-11-19T12:10:25.112Z,18.70
2022-11-19T12:13:03.232Z,16.83
2022-11-19T12:15:47.183Z,19.50
2022-11-19T12:18:27.644Z,15.83
2022-11-19T12:21:04.292Z,17.87
2022-11-19T12:24:03.510Z,17.20
2022-11-19T12:26:40.255Z,17.60
2022-11-19T12:29:22.267Z,19.37
2022-11-19T12:32:23.169Z,19.20
2022-11-19T12:35:24.235Z,19.67
2022-11-19T12:38:09.406Z,15.70
2022-11-19T12:40:47.182Z,18.07
2022-11-19T12:43:29.239Z,14.37
2022-11-19T12:46:07.452Z,17.23
2022-11-19T12:48:49.131Z,16.33
2022-11-19T12:51:31.194Z,16.33
2022-11-19T12:54:16.424Z,16.20
2022-11-19T12:56:55.714Z,15.47
2022-11-19T12:59:37.325Z,14.97
2022-11-19T13:02:15.653Z,15.37
2022-11-19T13:04:49.472Z,16.57
2022-11-19T13:07:24.158Z,16.30
2022-11-19T13:09:58.771Z,15.77
2022-11-19T13:12:36.553Z,15.27
2022-11-19T13:15:09.734Z,14.13
2022-11-19T13:17:41.566Z,16.73
2022-11-19T13:20:17.358Z,16.97
2022-11-19T13:22:49.198Z,16.97
2022-11-19T13:25:24.654Z,15.93
2022-11-19T13:27:56.399Z,15.43
2022-11-19T13:30:26.779Z,14.63
2022-11-19T13:33:06.811Z,16.37
2022-11-19T13:35:41.334Z,17.07
2022-11-19T13:38:19.402Z,15.53
2022-11-19T13:40:53.181Z,14.67
2022-11-19T13:43:40.410Z,16.13
2022-11-19T13:46:21.003Z,15.57
2022-11-19T13:48:57.008Z,13.83
2022-11-19T13:51:30.383Z,13.90
2022-11-19T13:54:04.874Z,14.80
2022-11-19T13:56:43.730Z,15.27
2022-11-19T13:59:27.656Z,15.30
2022-11-19T14:02:15.275Z,17.50
2022-11-19T14:05:04.067Z,14.83
2022-11-19T14:07:55.233Z,15.07
2022-11-19T14:10:31.642Z,15.13
2022-11-19T14:13:24.649Z,14.10
2022-11-19T14:16:22.534Z,14.03
2022-11-19T14:19:11.895Z,16.07
2022-11-19T14:22:08.864Z,14.20
2022-11-19T14:25:16.658Z,13.63
2022-11-19T14:27:46.527Z,14.73
2022-11-19T14:30:18.055Z,14.37
2022-11-19T14:32:51.703Z,13.43
2022-11-19T14:35:44.140Z,14.70
2022-11-19T14:38:31.870Z,16.90
2022-11-19T14:41:33.678Z,16.83
2022-11-19T14:44:32.973Z,15.07
2022-11-19T14:47:35.488Z,15.17
2022-11-19T14:50:09.601Z,12.17
2022-11-19T14:52:40.699Z,14.73
2022-11-19T14:55:22.499Z,14.53
2022-11-19T14:58:00.849Z,16.93
2022-11-19T15:00:34.516Z,15.37
2022-11-19T15:03:05.774Z,15.13
2022-11-19T15:05:36.760Z,14.00
2022-11-19T15:08:44.432Z,13.90
2022-11-19T15:11:38.601Z,14.60
2022-11-19T15:15:08.976Z,16.03
2022-11-19T15:17:42.456Z,16.27
2022-11-19T15:23:54.758Z,15.13
2022-11-19T15:26:33.907Z,14.10
2022-11-19T15:29:23.634Z,17.43
2022-11-19T15:32:26.317Z,14.70
2022-11-19T15:35:18.776Z,15.17
2022-11-19T15:38:09.724Z,16.70
2022-11-19T15:40:45.467Z,16.40
2022-11-19T15:43:23.804Z,15.70
2022-11-19T15:45:56.507Z,16.47
2022-11-19T15:48:33.410Z,15.80
2022-11-19T15:51:05.115Z,15.67
2022-11-19T15:53:33.817Z,16.13
2022-11-19T15:56:06.655Z,15.63
2022-11-19T15:58:38.877Z,15.93
2022-11-19T16:01:09.463Z,14.53
2022-11-19T16:03:39.862Z,17.47
2022-11-19T16:06:16.082Z,15.97
2022-11-19T16:08:46.000Z,15.13
2022-11-19T16:11:35.233Z,16.93
2022-11-19T16:14:21.219Z,15.83
2022-11-19T16:17:10.599Z,15.90
2022-11-19T16:19:38.769Z,16.40
2022-11-19T16:22:08.427Z,14.47
2022-11-19T16:24:54.387Z,13.93
2022-11-19T16:27:25.774Z,14.23
2022-11-19T16:29:53.945Z,15.17
2022-11-19T16:32:25.364Z,13.67
2022-11-19T16:35:11.707Z,12.53
2022-11-19T16:37:41.382Z,13.03
2022-11-19T16:40:16.799Z,14.97
2022-11-19T16:42:48.393Z,12.50
2022-11-19T16:45:21.418Z,13.17
2022-11-19T16:47:54.845Z,13.57
2022-11-19T16:50:29.458Z,13.27
2022-11-19T16:53:00.459Z,11.40
2022-11-19T16:55:52.559Z,14.23
2022-11-19T16:58:26.463Z,16.27
2022-11-19T17:00:59.672Z,13.30
2022-11-19T17:03:35.811Z,15.27
2022-11-19T17:06:06.423Z,14.17
2022-11-19T17:08:37.983Z,14.83
2022-11-19T17:11:35.090Z,15.53
2022-11-19T17:14:14.408Z,14.50
2022-11-19T17:16:46.827Z,17.47
2022-11-19T17:19:16.893Z,14.80
2022-11-19T17:21:57.621Z,15.67
2022-11-19T17:24:28.348Z,16.67
2022-11-19T17:26:56.942Z,15.70
2022-11-19T17:29:25.466Z,15.67
2022-11-19T17:31:55.847Z,20.03
2022-11-19T17:34:29.270Z,17.73
2022-11-19T17:36:57.239Z,16.40
2022-11-19T17:39:26.681Z,20.23
2022-11-19T17:42:13.813Z,20.77
2022-11-19T17:44:42.261Z,19.67
2022-11-19T17:47:24.369Z,21.50
2022-11-19T17:49:53.251Z,18.73
2022-11-19T17:52:23.730Z,19.13
2022-11-19T17:54:55.160Z,18.43
2022-11-19T17:57:23.068Z,17.47
2022-11-19T17:59:51.233Z,18.93
2022-11-19T18:02:21.476Z,19.03
2022-11-19T18:04:50.121Z,18.30
2022-11-19T18:07:18.233Z,17.37
2022-11-19T18:09:46.279Z,19.13
2022-11-19T18:12:17.684Z,18.40
2022-11-19T18:14:46.081Z,20.20
2022-11-19T18:17:15.342Z,20.50
2022-11-19T18:19:43.454Z,19.07
2022-11-19T18:22:18.066Z,21.37
2022-11-19T18:24:47.978Z,19.37
2022-11-19T18:27:18.126Z,18.80
2022-11-19T18:29:46.026Z,19.10
2022-11-19T18:32:15.911Z,20.97
2022-11-19T18:34:44.625Z,20.03
2022-11-19T18:37:13.283Z,21.53
2022-11-19T18:39:41.120Z,17.50
2022-11-19T18:42:11.095Z,15.67
2022-11-19T18:44:42.374Z,17.80
2022-11-19T18:47:12.298Z,17.03
2022-11-19T18:49:40.294Z,15.83
2022-11-19T18:52:09.921Z,16.50
2022-11-19T18:54:38.436Z,17.37
2022-11-19T18:57:06.348Z,17.50
2022-11-19T18:59:34.386Z,16.37
2022-11-19T19:02:03.925Z,17.23
2022-11-19T19:04:32.155Z,17.07
2022-11-19T19:07:00.296Z,19.37
2022-11-19T19:09:28.203Z,17.50
2022-11-19T19:12:14.139Z,19.70
2022-11-19T19:14:42.514Z,18.43
2022-11-19T19:17:12.299Z,19.37
2022-11-19T19:19:40.188Z,19.20
2022-11-19T19:22:09.085Z,18.93
2022-11-19T19:24:37.095Z,17.77
2022-11-19T19:27:05.427Z,19.53
2022-11-19T19:29:33.592Z,16.70
2022-11-19T19:32:02.018Z,17.80
2022-11-19T19:34:31.639Z,17.80
2022-11-19T19:36:59.563Z,19.73
2022-11-19T19:39:27.601Z,16.97
2022-11-19T19:41:55.643Z,18.93
2022-11-19T19:44:23.603Z,18.17
2022-11-19T19:46:51.811Z,18.57
2022-11-19T19:49:20.490Z,18.10
2022-11-19T19:51:50.107Z,18.73
2022-11-19T19:54:18.755Z,19.90
2022-11-19T19:56:47.002Z,17.80
2022-11-19T19:59:15.699Z,22.63
2022-11-19T20:01:47.451Z,19.00
2022-11-19T20:04:15.718Z,19.53
2022-11-19T20:06:46.900Z,19.50
2022-11-19T20:09:16.389Z,19.20
2022-11-19T20:11:44.512Z,20.63
2022-11-19T20:14:12.947Z,19.63
2022-11-19T20:16:42.108Z,18.23
2022-11-19T20:19:13.701Z,20.33
2022-11-19T20:21:42.314Z,17.57
2022-11-19T20:24:12.901Z,18.53
2022-11-19T20:26:43.651Z,18.60
2022-11-19T20:29:13.625Z,23.50
2022-11-19T20:31:45.761Z,18.33
2022-11-19T20:34:13.991Z,20.30
2022-11-19T20:36:42.061Z,18.00
2022-11-19T20:39:10.239Z,22.10
2022-11-19T20:41:55.928Z,18.13
2022-11-19T20:44:25.202Z,23.03
2022-11-19T20:46:55.134Z,20.00
2022-11-19T20:49:26.030Z,19.33
2022-11-19T20:51:54.739Z,21.27
2022-11-19T20:54:23.405Z,21.70
2022-11-19T20:56:52.297Z,19.20
2022-11-19T20:59:21.135Z,21.30
2022-11-19T21:01:51.918Z,21.33
2022-11-19T21:04:20.934Z,18.90
2022-11-19T21:06:49.935Z,19.80
2022-11-19T21:09:19.704Z,23.03
2022-11-19T21:11:48.511Z,22.40
2022-11-19T21:14:16.409Z,21.17
2022-11-19T21:16:44.359Z,22.37
2022-11-19T21:19:14.128Z,19.17
2022-11-19T21:21:44.409Z,19.70
2022-11-19T21:24:12.777Z,21.47
2022-11-19T21:26:41.056Z,21.53
2022-11-19T21:29:11.684Z,22.97
2022-11-19T21:31:42.296Z,20.80
2022-11-19T21:34:13.871Z,27.17
2022-11-19T21:36:43.430Z,24.10
2022-11-19T21:39:13.931Z,22.97
2022-11-19T21:41:42.319Z,23.53
2022-11-19T21:44:10.972Z,18.10
2022-11-19T21:46:40.453Z,22.17
2022-11-19T21:49:08.949Z,20.70
2022-11-19T21:51:38.464Z,21.33
2022-11-19T21:54:06.708Z,23.53
2022-11-19T21:56:38.506Z,22.40
2022-11-19T21:59:07.807Z,21.97
2022-11-19T22:01:36.163Z,21.67
2022-11-19T22:04:04.502Z,22.33
2022-11-19T22:06:32.894Z,25.57
2022-11-19T22:09:02.279Z,19.97
2022-11-19T22:11:30.783Z,21.93
2022-11-19T22:14:00.518Z,24.17
2022-11-19T22:16:28.916Z,20.90
2022-11-19T22:18:57.431Z,20.80
2022-11-19T22:21:26.620Z,21.43
2022-11-19T22:23:54.735Z,23.57
2022-11-19T22:26:24.255Z,22.80
2022-11-19T22:28:52.347Z,22.80
2022-11-19T22:31:20.488Z,22.80
2022-11-19T22:33:51.650Z,24.23
2022-11-19T22:36:21.571Z,23.17
2022-11-19T22:38:50.376Z,24.60
2022-11-19T22:41:20.571Z,23.13
2022-11-19T22:43:50.260Z,23.80
2022-11-19T22:46:19.268Z,24.40
2022-11-19T22:48:47.397Z,23.97
2022-11-19T22:51:17.229Z,26.23
2022-11-19T22:53:45.948Z,27.50
2022-11-19T22:56:15.844Z,25.03
2022-11-19T22:58:44.227Z,29.03
2022-11-19T23:01:18.721Z,24.50
2022-11-19T23:03:47.405Z,24.33
2022-11-19T23:06:16.264Z,24.70
2022-11-19T23:08:44.967Z,23.73
2022-11-19T23:11:14.690Z,26.07
2022-11-19T23:13:43.584Z,26.23
2022-11-19T23:16:13.640Z,22.30
2022-11-19T23:18:49.428Z,27.57
2022-11-19T23:21:19.440Z,23.97
2022-11-19T23:23:47.677Z,25.03
2022-11-19T23:26:18.099Z,25.60
2022-11-19T23:28:46.175Z,23.47
2022-11-19T23:31:17.210Z,23.50
2022-11-19T23:33:47.631Z,26.27
2022-11-19T23:36:18.346Z,23.10
2022-11-19T23:38:46.938Z,24.67
2022-11-19T23:41:16.496Z,23.13
2022-11-19T23:43:45.383Z,22.87
2022-11-19T23:46:15.932Z,25.47
2022-11-19T23:48:47.785Z,26.00
2022-11-19T23:51:17.358Z,26.00
2022-11-19T23:53:45.739Z,25.40
2022-11-19T23:56:15.488Z,24.90
2022-11-19T23:58:43.805Z,29.17
